< < Back
Terminal Aerodrome Forecast


Current Version              Previous Versions:   1  2  3  4  5  6  7  8  9  

Terminal Aerodrome Forecast

212
FTUS44 KOHX 270354 AAC
TAFCSV
TAF AMD
KCSV 270354Z 2704/2724 34003KT 3SM BR OVC005
      TEMPO 2704/2708 1/2SM FG VV001
     FM271400 35005KT P6SM SKC=



Latest METAR

579
SAUS70 KWBC 270500 RRE
MTRCSV
METAR KCSV 270453Z AUTO 02004KT 1 1/2SM BR OVC002 17/17 A3010 RMK AO2
SLP174 T01670167


USA.gov is the U.S. government's official web portal to all federal, state and local government web resources and services.